sensor_id;sensor_type;location;lat;lon;timestamp;pressure;altitude;pressure_sealevel;temperature;humidity
33286;BME280;19656;50.096;20.014;2022-10-23T00:00:10;99192.23;;;14.43;69.49
33286;BME280;19656;50.096;20.014;2022-10-23T00:05:38;99198.71;;;14.38;69.63
33286;BME280;19656;50.096;20.014;2022-10-23T00:10:42;99208.73;;;14.35;69.61
33286;BME280;19656;50.096;20.014;2022-10-23T00:15:45;99212.64;;;14.37;69.97
33286;BME280;19656;50.096;20.014;2022-10-23T00:20:48;99222.65;;;14.39;70.00
33286;BME280;19656;50.096;20.014;2022-10-23T00:25:51;99232.23;;;14.43;69.95
33286;BME280;19656;50.096;20.014;2022-10-23T00:30:54;99242.05;;;14.48;69.86
33286;BME280;19656;50.096;20.014;2022-10-23T00:35:58;99250.98;;;14.53;69.80
33286;BME280;19656;50.096;20.014;2022-10-23T00:41:02;99254.41;;;14.57;69.87
33286;BME280;19656;50.096;20.014;2022-10-23T00:46:05;99258.23;;;14.58;69.85
33286;BME280;19656;50.096;20.014;2022-10-23T00:51:08;99262.17;;;14.59;69.78
33286;BME280;19656;50.096;20.014;2022-10-23T00:56:12;99269.88;;;14.65;69.67
33286;BME280;19656;50.096;20.014;2022-10-23T01:01:20;99275.12;;;14.71;69.57
33286;BME280;19656;50.096;20.014;2022-10-23T01:06:41;99267.05;;;14.79;69.63
33286;BME280;19656;50.096;20.014;2022-10-23T01:11:52;99261.24;;;14.85;69.63
33286;BME280;19656;50.096;20.014;2022-10-23T01:27:41;99265.96;;;14.91;69.10
33286;BME280;19656;50.096;20.014;2022-10-23T01:33:14;99274.05;;;14.95;69.03
33286;BME280;19656;50.096;20.014;2022-10-23T01:38:45;99281.92;;;15.00;69.14
33286;BME280;19656;50.096;20.014;2022-10-23T01:44:06;99269.85;;;15.01;68.99
33286;BME280;19656;50.096;20.014;2022-10-23T01:49:12;99264.34;;;14.98;68.84
33286;BME280;19656;50.096;20.014;2022-10-23T01:54:18;99280.38;;;14.99;68.75
33286;BME280;19656;50.096;20.014;2022-10-23T01:59:27;99278.68;;;15.00;68.76
33286;BME280;19656;50.096;20.014;2022-10-23T02:04:37;99285.00;;;14.99;68.64
33286;BME280;19656;50.096;20.014;2022-10-23T02:09:41;99298.73;;;14.97;68.53
33286;BME280;19656;50.096;20.014;2022-10-23T02:14:52;99297.48;;;14.92;68.36
33286;BME280;19656;50.096;20.014;2022-10-23T02:20:21;99296.06;;;14.92;68.44
33286;BME280;19656;50.096;20.014;2022-10-23T02:25:33;99310.40;;;14.91;68.26
33286;BME280;19656;50.096;20.014;2022-10-23T02:30:40;99311.48;;;14.89;68.32
33286;BME280;19656;50.096;20.014;2022-10-23T02:35:47;99311.39;;;14.85;68.18
33286;BME280;19656;50.096;20.014;2022-10-23T02:41:05;99314.60;;;14.78;67.96
33286;BME280;19656;50.096;20.014;2022-10-23T02:46:21;99309.04;;;14.67;68.17
33286;BME280;19656;50.096;20.014;2022-10-23T02:51:43;99313.50;;;14.64;68.17
33286;BME280;19656;50.096;20.014;2022-10-23T02:57:09;99316.84;;;14.67;68.32
33286;BME280;19656;50.096;20.014;2022-10-23T03:07:21;99321.37;;;14.76;68.45
33286;BME280;19656;50.096;20.014;2022-10-23T03:12:24;99324.11;;;14.78;68.17
33286;BME280;19656;50.096;20.014;2022-10-23T03:17:27;99333.60;;;14.78;68.19
33286;BME280;19656;50.096;20.014;2022-10-23T03:22:35;99346.73;;;14.76;68.10
33286;BME280;19656;50.096;20.014;2022-10-23T03:27:38;99340.36;;;14.76;68.24
33286;BME280;19656;50.096;20.014;2022-10-23T03:32:43;99341.25;;;14.78;68.23
33286;BME280;19656;50.096;20.014;2022-10-23T03:37:46;99336.65;;;14.80;68.26
33286;BME280;19656;50.096;20.014;2022-10-23T03:42:50;99335.23;;;14.77;68.10
33286;BME280;19656;50.096;20.014;2022-10-23T03:47:53;99338.47;;;14.75;67.80
33286;BME280;19656;50.096;20.014;2022-10-23T03:52:56;99345.69;;;14.69;67.74
33286;BME280;19656;50.096;20.014;2022-10-23T03:57:59;99344.59;;;14.66;68.09
33286;BME280;19656;50.096;20.014;2022-10-23T04:03:02;99346.79;;;14.63;68.09
33286;BME280;19656;50.096;20.014;2022-10-23T04:08:05;99355.42;;;14.60;67.95
33286;BME280;19656;50.096;20.014;2022-10-23T04:13:08;99351.84;;;14.51;67.92
33286;BME280;19656;50.096;20.014;2022-10-23T04:18:11;99347.52;;;14.49;68.01
33286;BME280;19656;50.096;20.014;2022-10-23T04:23:15;99344.64;;;14.49;68.01
33286;BME280;19656;50.096;20.014;2022-10-23T04:28:20;99346.31;;;14.40;67.88
33286;BME280;19656;50.096;20.014;2022-10-23T04:33:24;99345.96;;;14.38;68.06
33286;BME280;19656;50.096;20.014;2022-10-23T04:38:27;99342.98;;;14.37;68.04
33286;BME280;19656;50.096;20.014;2022-10-23T04:43:30;99349.11;;;14.31;67.96
33286;BME280;19656;50.096;20.014;2022-10-23T04:48:33;99347.29;;;14.29;67.82
33286;BME280;19656;50.096;20.014;2022-10-23T04:53:58;99342.42;;;14.30;67.96
33286;BME280;19656;50.096;20.014;2022-10-23T04:59:20;99339.02;;;14.28;68.03
33286;BME280;19656;50.096;20.014;2022-10-23T05:04:24;99340.05;;;14.24;67.91
33286;BME280;19656;50.096;20.014;2022-10-23T05:09:45;99331.84;;;14.18;67.92
33286;BME280;19656;50.096;20.014;2022-10-23T05:14:57;99335.18;;;14.12;67.99
33286;BME280;19656;50.096;20.014;2022-10-23T05:20:04;99343.40;;;14.11;67.95
33286;BME280;19656;50.096;20.014;2022-10-23T05:25:09;99345.89;;;14.14;68.11
33286;BME280;19656;50.096;20.014;2022-10-23T05:30:14;99337.02;;;14.13;67.96
33286;BME280;19656;50.096;20.014;2022-10-23T05:35:21;99337.59;;;14.13;68.18
33286;BME280;19656;50.096;20.014;2022-10-23T05:40:25;99337.73;;;14.11;68.10
33286;BME280;19656;50.096;20.014;2022-10-23T05:45:36;99340.71;;;14.17;68.20
33286;BME280;19656;50.096;20.014;2022-10-23T05:51:04;99336.13;;;14.23;68.19
33286;BME280;19656;50.096;20.014;2022-10-23T05:56:38;99341.06;;;14.27;68.23
33286;BME280;19656;50.096;20.014;2022-10-23T06:02:12;99342.60;;;14.30;68.35
33286;BME280;19656;50.096;20.014;2022-10-23T06:07:38;99346.30;;;14.33;68.28
33286;BME280;19656;50.096;20.014;2022-10-23T06:12:42;99345.98;;;14.40;68.16
33286;BME280;19656;50.096;20.014;2022-10-23T06:17:48;99350.56;;;14.46;68.11
33286;BME280;19656;50.096;20.014;2022-10-23T06:22:52;99356.05;;;14.51;68.26
33286;BME280;19656;50.096;20.014;2022-10-23T06:28:18;99358.08;;;14.77;69.14
33286;BME280;19656;50.096;20.014;2022-10-23T06:33:23;99362.77;;;14.84;68.09
33286;BME280;19656;50.096;20.014;2022-10-23T06:38:27;99368.45;;;14.80;67.81
33286;BME280;19656;50.096;20.014;2022-10-23T06:43:30;99373.70;;;14.79;67.59
33286;BME280;19656;50.096;20.014;2022-10-23T06:48:53;99382.38;;;14.80;67.74
33286;BME280;19656;50.096;20.014;2022-10-23T06:54:01;99387.40;;;14.84;67.72
33286;BME280;19656;50.096;20.014;2022-10-23T06:59:22;99390.02;;;14.93;68.07
33286;BME280;19656;50.096;20.014;2022-10-23T07:04:26;99390.28;;;14.99;67.80
33286;BME280;19656;50.096;20.014;2022-10-23T07:09:30;99394.45;;;15.00;67.65
33286;BME280;19656;50.096;20.014;2022-10-23T07:14:51;99404.41;;;15.05;67.40
33286;BME280;19656;50.096;20.014;2022-10-23T07:19:56;99400.80;;;15.13;67.59
33286;BME280;19656;50.096;20.014;2022-10-23T07:24:59;99404.73;;;15.25;67.83
33286;BME280;19656;50.096;20.014;2022-10-23T07:30:10;99408.17;;;15.36;67.74
33286;BME280;19656;50.096;20.014;2022-10-23T07:35:19;99407.48;;;15.43;67.62
33286;BME280;19656;50.096;20.014;2022-10-23T07:40:30;99402.80;;;15.48;67.59
33286;BME280;19656;50.096;20.014;2022-10-23T07:45:33;99406.19;;;15.55;67.53
33286;BME280;19656;50.096;20.014;2022-10-23T07:50:42;99415.48;;;15.62;67.46
33286;BME280;19656;50.096;20.014;2022-10-23T07:55:56;99422.14;;;15.72;67.35
33286;BME280;19656;50.096;20.014;2022-10-23T08:01:01;99423.31;;;15.79;67.45
33286;BME280;19656;50.096;20.014;2022-10-23T08:06:05;99434.98;;;15.83;67.16
33286;BME280;19656;50.096;20.014;2022-10-23T08:11:11;99436.69;;;15.84;67.08
33286;BME280;19656;50.096;20.014;2022-10-23T08:16:22;99427.98;;;15.84;66.76
33286;BME280;19656;50.096;20.014;2022-10-23T08:21:40;99416.09;;;15.92;66.95
33286;BME280;19656;50.096;20.014;2022-10-23T08:26:48;99416.22;;;16.04;66.98
33286;BME280;19656;50.096;20.014;2022-10-23T08:31:53;99415.19;;;16.15;67.19
33286;BME280;19656;50.096;20.014;2022-10-23T08:37:24;99409.46;;;16.21;66.85
33286;BME280;19656;50.096;20.014;2022-10-23T08:42:27;99406.91;;;16.22;66.63
33286;BME280;19656;50.096;20.014;2022-10-23T08:47:43;99411.25;;;16.26;66.64
33286;BME280;19656;50.096;20.014;2022-10-23T08:58:16;99407.20;;;16.39;66.30
33286;BME280;19656;50.096;20.014;2022-10-23T09:03:21;99411.71;;;16.49;66.48
33286;BME280;19656;50.096;20.014;2022-10-23T09:19:26;99417.61;;;16.90;66.44
33286;BME280;19656;50.096;20.014;2022-10-23T09:24:31;99417.52;;;17.10;66.46
33286;BME280;19656;50.096;20.014;2022-10-23T09:29:35;99417.55;;;17.20;65.60
33286;BME280;19656;50.096;20.014;2022-10-23T09:34:52;99421.08;;;17.30;65.72
33286;BME280;19656;50.096;20.014;2022-10-23T09:40:28;99429.42;;;17.39;65.37
33286;BME280;19656;50.096;20.014;2022-10-23T09:45:33;99421.84;;;17.46;64.99
33286;BME280;19656;50.096;20.014;2022-10-23T09:50:56;99415.17;;;17.49;64.79
33286;BME280;19656;50.096;20.014;2022-10-23T09:56:03;99405.02;;;17.50;64.36
33286;BME280;19656;50.096;20.014;2022-10-23T10:01:21;99399.41;;;17.48;64.09
33286;BME280;19656;50.096;20.014;2022-10-23T10:06:30;99385.69;;;17.49;64.23
33286;BME280;19656;50.096;20.014;2022-10-23T10:11:39;99380.48;;;17.62;64.18
33286;BME280;19656;50.096;20.014;2022-10-23T10:33:13;99381.46;;;18.09;62.92
33286;BME280;19656;50.096;20.014;2022-10-23T10:43:45;99373.98;;;18.20;62.36
33286;BME280;19656;50.096;20.014;2022-10-23T10:59:59;99353.67;;;18.41;62.15
33286;BME280;19656;50.096;20.014;2022-10-23T11:10:17;99341.66;;;18.47;61.60
33286;BME280;19656;50.096;20.014;2022-10-23T11:15:37;99333.70;;;18.53;61.36
33286;BME280;19656;50.096;20.014;2022-10-23T11:31:50;99312.03;;;18.78;61.03
33286;BME280;19656;50.096;20.014;2022-10-23T11:36:57;99304.09;;;18.88;60.75
33286;BME280;19656;50.096;20.014;2022-10-23T11:42:14;99301.99;;;18.94;60.36
33286;BME280;19656;50.096;20.014;2022-10-23T11:47:36;99297.28;;;18.98;60.17
33286;BME280;19656;50.096;20.014;2022-10-23T11:53:08;99293.52;;;19.07;59.81
33286;BME280;19656;50.096;20.014;2022-10-23T11:58:27;99287.24;;;19.17;59.31
33286;BME280;19656;50.096;20.014;2022-10-23T12:03:51;99279.67;;;19.23;58.81
33286;BME280;19656;50.096;20.014;2022-10-23T12:08:59;99272.83;;;19.27;58.48
33286;BME280;19656;50.096;20.014;2022-10-23T12:14:03;99265.64;;;19.27;58.16
33286;BME280;19656;50.096;20.014;2022-10-23T12:19:22;99265.41;;;19.29;58.19
33286;BME280;19656;50.096;20.014;2022-10-23T12:24:43;99255.08;;;19.35;58.12
33286;BME280;19656;50.096;20.014;2022-10-23T12:30:14;99243.05;;;19.41;57.76
33286;BME280;19656;50.096;20.014;2022-10-23T12:40:51;99219.89;;;19.38;57.24
33286;BME280;19656;50.096;20.014;2022-10-23T12:46:01;99213.95;;;19.35;57.04
33286;BME280;19656;50.096;20.014;2022-10-23T12:51:05;99214.02;;;19.32;57.01
33286;BME280;19656;50.096;20.014;2022-10-23T12:56:11;99212.23;;;19.37;57.22
33286;BME280;19656;50.096;20.014;2022-10-23T13:01:24;99217.62;;;19.49;57.19
33286;BME280;19656;50.096;20.014;2022-10-23T13:06:28;99221.32;;;19.57;56.97
33286;BME280;19656;50.096;20.014;2022-10-23T13:11:31;99226.13;;;19.61;56.56
33286;BME280;19656;50.096;20.014;2022-10-23T13:16:37;99219.33;;;19.65;56.36
33286;BME280;19656;50.096;20.014;2022-10-23T13:21:44;99210.63;;;19.66;56.04
33286;BME280;19656;50.096;20.014;2022-10-23T13:26:48;99204.66;;;19.66;56.22
33286;BME280;19656;50.096;20.014;2022-10-23T13:31:51;99196.45;;;19.67;56.29
33286;BME280;19656;50.096;20.014;2022-10-23T13:36:57;99194.60;;;19.66;56.14
33286;BME280;19656;50.096;20.014;2022-10-23T13:42:12;99188.84;;;19.62;55.74
33286;BME280;19656;50.096;20.014;2022-10-23T13:47:17;99194.94;;;19.58;55.85
33286;BME280;19656;50.096;20.014;2022-10-23T13:52:21;99199.23;;;19.57;55.68
33286;BME280;19656;50.096;20.014;2022-10-23T13:57:25;99206.05;;;19.53;55.71
33286;BME280;19656;50.096;20.014;2022-10-23T14:02:28;99204.10;;;19.49;55.70
33286;BME280;19656;50.096;20.014;2022-10-23T14:07:31;99207.92;;;19.47;55.74
33286;BME280;19656;50.096;20.014;2022-10-23T14:12:42;99205.41;;;19.49;55.69
33286;BME280;19656;50.096;20.014;2022-10-23T14:17:46;99193.81;;;19.50;55.68
33286;BME280;19656;50.096;20.014;2022-10-23T14:22:49;99189.98;;;19.50;55.52
33286;BME280;19656;50.096;20.014;2022-10-23T14:27:52;99188.90;;;19.48;55.53
33286;BME280;19656;50.096;20.014;2022-10-23T14:33:00;99192.78;;;19.44;55.48
33286;BME280;19656;50.096;20.014;2022-10-23T14:38:03;99190.48;;;19.35;55.65
33286;BME280;19656;50.096;20.014;2022-10-23T14:43:06;99191.90;;;19.26;55.76
33286;BME280;19656;50.096;20.014;2022-10-23T14:48:09;99187.14;;;19.22;55.81
33286;BME280;19656;50.096;20.014;2022-10-23T14:53:13;99187.35;;;19.20;55.64
33286;BME280;19656;50.096;20.014;2022-10-23T14:58:16;99185.70;;;19.14;55.52
33286;BME280;19656;50.096;20.014;2022-10-23T15:03:18;99181.20;;;19.07;55.39
33286;BME280;19656;50.096;20.014;2022-10-23T15:08:22;99184.84;;;18.99;55.30
33286;BME280;19656;50.096;20.014;2022-10-23T15:13:25;99187.60;;;18.94;55.41
33286;BME280;19656;50.096;20.014;2022-10-23T15:18:28;99184.30;;;18.87;55.41
33286;BME280;19656;50.096;20.014;2022-10-23T15:23:32;99187.01;;;18.77;55.45
33286;BME280;19656;50.096;20.014;2022-10-23T15:28:36;99190.17;;;18.68;55.57
33286;BME280;19656;50.096;20.014;2022-10-23T15:33:39;99191.02;;;18.50;55.66
33286;BME280;19656;50.096;20.014;2022-10-23T15:38:42;99192.06;;;18.25;55.89
33286;BME280;19656;50.096;20.014;2022-10-23T15:43:45;99191.67;;;18.03;56.27
33286;BME280;19656;50.096;20.014;2022-10-23T15:48:48;99192.20;;;18.00;57.85
33286;BME280;19656;50.096;20.014;2022-10-23T15:53:52;99189.02;;;17.87;57.33
33286;BME280;19656;50.096;20.014;2022-10-23T15:58:55;99186.28;;;17.67;57.31
33286;BME280;19656;50.096;20.014;2022-10-23T16:03:58;99191.83;;;17.45;57.42
33286;BME280;19656;50.096;20.014;2022-10-23T16:09:02;99192.91;;;17.20;57.63
33286;BME280;19656;50.096;20.014;2022-10-23T16:14:06;99191.55;;;17.03;57.94
33286;BME280;19656;50.096;20.014;2022-10-23T16:19:09;99194.66;;;16.93;58.16
33286;BME280;19656;50.096;20.014;2022-10-23T16:24:13;99205.14;;;16.86;58.56
33286;BME280;19656;50.096;20.014;2022-10-23T16:29:16;99200.05;;;16.74;58.82
33286;BME280;19656;50.096;20.014;2022-10-23T16:34:19;99206.72;;;16.65;58.95
33286;BME280;19656;50.096;20.014;2022-10-23T16:39:22;99213.86;;;16.54;59.19
33286;BME280;19656;50.096;20.014;2022-10-23T16:44:44;99219.93;;;16.42;59.42
33286;BME280;19656;50.096;20.014;2022-10-23T16:49:47;99228.89;;;16.38;59.91
33286;BME280;19656;50.096;20.014;2022-10-23T16:54:50;99234.70;;;16.39;60.03
33286;BME280;19656;50.096;20.014;2022-10-23T16:59:55;99239.46;;;16.25;59.91
33286;BME280;19656;50.096;20.014;2022-10-23T17:04:58;99243.41;;;16.07;59.96
33286;BME280;19656;50.096;20.014;2022-10-23T17:10:01;99243.11;;;16.00;60.18
33286;BME280;19656;50.096;20.014;2022-10-23T17:15:04;99246.27;;;15.96;60.51
33286;BME280;19656;50.096;20.014;2022-10-23T17:20:08;99249.00;;;15.94;60.76
33286;BME280;19656;50.096;20.014;2022-10-23T17:25:11;99252.89;;;15.87;60.87
33286;BME280;19656;50.096;20.014;2022-10-23T17:30:14;99246.33;;;15.80;61.00
33286;BME280;19656;50.096;20.014;2022-10-23T17:35:17;99249.55;;;15.71;60.93
33286;BME280;19656;50.096;20.014;2022-10-23T17:40:20;99251.48;;;15.60;61.01
33286;BME280;19656;50.096;20.014;2022-10-23T17:45:26;99250.02;;;15.49;61.17
33286;BME280;19656;50.096;20.014;2022-10-23T17:50:30;99244.34;;;15.37;61.34
33286;BME280;19656;50.096;20.014;2022-10-23T17:55:39;99237.38;;;15.32;61.56
33286;BME280;19656;50.096;20.014;2022-10-23T18:00:43;99234.66;;;15.40;62.03
33286;BME280;19656;50.096;20.014;2022-10-23T18:05:46;99232.23;;;15.39;61.95
33286;BME280;19656;50.096;20.014;2022-10-23T18:10:49;99233.24;;;15.32;61.96
33286;BME280;19656;50.096;20.014;2022-10-23T18:15:52;99228.41;;;15.28;62.07
33286;BME280;19656;50.096;20.014;2022-10-23T18:21:00;99224.16;;;15.19;61.99
33286;BME280;19656;50.096;20.014;2022-10-23T18:26:04;99222.64;;;15.08;62.16
33286;BME280;19656;50.096;20.014;2022-10-23T18:31:09;99218.65;;;15.00;62.19
33286;BME280;19656;50.096;20.014;2022-10-23T18:36:19;99215.75;;;14.91;62.30
33286;BME280;19656;50.096;20.014;2022-10-23T18:41:22;99219.26;;;14.87;62.43
33286;BME280;19656;50.096;20.014;2022-10-23T18:46:26;99221.12;;;14.84;62.56
33286;BME280;19656;50.096;20.014;2022-10-23T18:51:32;99221.93;;;14.80;62.49
33286;BME280;19656;50.096;20.014;2022-10-23T18:56:39;99217.45;;;14.71;62.56
33286;BME280;19656;50.096;20.014;2022-10-23T19:01:43;99216.85;;;14.60;62.52
33286;BME280;19656;50.096;20.014;2022-10-23T19:06:48;99212.54;;;14.49;62.54
33286;BME280;19656;50.096;20.014;2022-10-23T19:11:51;99202.94;;;14.38;62.60
33286;BME280;19656;50.096;20.014;2022-10-23T19:16:58;99198.68;;;14.29;62.68
33286;BME280;19656;50.096;20.014;2022-10-23T19:22:03;99189.23;;;14.19;62.84
33286;BME280;19656;50.096;20.014;2022-10-23T19:27:06;99196.20;;;14.14;62.90
33286;BME280;19656;50.096;20.014;2022-10-23T19:32:10;99201.27;;;14.13;62.93
33286;BME280;19656;50.096;20.014;2022-10-23T19:37:14;99198.12;;;14.10;62.99
33286;BME280;19656;50.096;20.014;2022-10-23T19:42:17;99189.27;;;14.04;63.26
33286;BME280;19656;50.096;20.014;2022-10-23T19:47:20;99182.37;;;13.96;63.16
33286;BME280;19656;50.096;20.014;2022-10-23T19:52:23;99180.38;;;13.89;63.17
33286;BME280;19656;50.096;20.014;2022-10-23T19:57:27;99185.13;;;13.83;63.27
33286;BME280;19656;50.096;20.014;2022-10-23T20:02:33;99183.00;;;13.75;63.29
33286;BME280;19656;50.096;20.014;2022-10-23T20:07:42;99183.33;;;13.76;63.57
33286;BME280;19656;50.096;20.014;2022-10-23T20:12:49;99184.11;;;13.75;63.48
33286;BME280;19656;50.096;20.014;2022-10-23T20:17:59;99182.72;;;13.72;63.69
33286;BME280;19656;50.096;20.014;2022-10-23T20:23:02;99187.81;;;13.68;63.77
33286;BME280;19656;50.096;20.014;2022-10-23T20:28:05;99184.08;;;13.60;63.74
33286;BME280;19656;50.096;20.014;2022-10-23T20:33:13;99180.05;;;13.52;63.81
33286;BME280;19656;50.096;20.014;2022-10-23T20:38:15;99171.56;;;13.45;63.95
33286;BME280;19656;50.096;20.014;2022-10-23T20:43:18;99170.11;;;13.39;63.81
33286;BME280;19656;50.096;20.014;2022-10-23T20:48:21;99170.04;;;13.35;63.69
33286;BME280;19656;50.096;20.014;2022-10-23T20:53:25;99160.84;;;13.34;63.71
33286;BME280;19656;50.096;20.014;2022-10-23T20:58:28;99162.93;;;13.30;63.72
33286;BME280;19656;50.096;20.014;2022-10-23T21:03:31;99158.71;;;13.23;63.53
33286;BME280;19656;50.096;20.014;2022-10-23T21:08:35;99160.64;;;13.16;63.48
33286;BME280;19656;50.096;20.014;2022-10-23T21:13:39;99159.56;;;13.09;63.38
33286;BME280;19656;50.096;20.014;2022-10-23T21:18:43;99151.27;;;12.99;63.43
33286;BME280;19656;50.096;20.014;2022-10-23T21:23:50;99156.80;;;12.90;63.60
33286;BME280;19656;50.096;20.014;2022-10-23T21:28:54;99153.59;;;12.82;63.55
33286;BME280;19656;50.096;20.014;2022-10-23T21:34:08;99145.35;;;12.77;63.56
33286;BME280;19656;50.096;20.014;2022-10-23T21:39:12;99138.73;;;12.78;63.76
33286;BME280;19656;50.096;20.014;2022-10-23T21:44:15;99131.36;;;12.76;63.60
33286;BME280;19656;50.096;20.014;2022-10-23T21:49:19;99132.52;;;12.73;63.51
33286;BME280;19656;50.096;20.014;2022-10-23T21:54:22;99137.88;;;12.67;63.54
33286;BME280;19656;50.096;20.014;2022-10-23T21:59:26;99145.10;;;12.58;63.45
33286;BME280;19656;50.096;20.014;2022-10-23T22:04:33;99142.33;;;12.49;63.41
33286;BME280;19656;50.096;20.014;2022-10-23T22:09:36;99144.58;;;12.40;63.68
33286;BME280;19656;50.096;20.014;2022-10-23T22:14:39;99134.00;;;12.33;63.78
33286;BME280;19656;50.096;20.014;2022-10-23T22:19:42;99129.24;;;12.29;63.76
33286;BME280;19656;50.096;20.014;2022-10-23T22:24:45;99134.19;;;12.30;63.77
33286;BME280;19656;50.096;20.014;2022-10-23T22:29:48;99136.28;;;12.28;63.95
33286;BME280;19656;50.096;20.014;2022-10-23T22:34:51;99125.20;;;12.26;64.17
33286;BME280;19656;50.096;20.014;2022-10-23T22:39:55;99117.23;;;12.26;63.97
33286;BME280;19656;50.096;20.014;2022-10-23T22:44:58;99111.95;;;12.22;64.25
33286;BME280;19656;50.096;20.014;2022-10-23T22:50:01;99107.73;;;12.19;64.01
33286;BME280;19656;50.096;20.014;2022-10-23T22:55:04;99104.01;;;12.14;64.14
33286;BME280;19656;50.096;20.014;2022-10-23T23:00:08;99097.67;;;12.07;63.70
33286;BME280;19656;50.096;20.014;2022-10-23T23:05:11;99080.09;;;12.07;64.01
33286;BME280;19656;50.096;20.014;2022-10-23T23:10:14;99083.13;;;12.06;63.88
33286;BME280;19656;50.096;20.014;2022-10-23T23:15:18;99082.70;;;12.05;64.08
33286;BME280;19656;50.096;20.014;2022-10-23T23:20:21;99084.16;;;12.07;64.38
33286;BME280;19656;50.096;20.014;2022-10-23T23:25:24;99087.27;;;12.06;64.27
33286;BME280;19656;50.096;20.014;2022-10-23T23:30:28;99093.64;;;12.06;64.47
33286;BME280;19656;50.096;20.014;2022-10-23T23:35:31;99088.40;;;12.05;64.46
33286;BME280;19656;50.096;20.014;2022-10-23T23:40:34;99076.95;;;12.01;64.31
33286;BME280;19656;50.096;20.014;2022-10-23T23:45:37;99068.01;;;11.99;64.45
33286;BME280;19656;50.096;20.014;2022-10-23T23:50:41;99073.00;;;12.01;64.51
33286;BME280;19656;50.096;20.014;2022-10-23T23:55:44;99066.98;;;12.03;64.36
